Time;durP1;ratioP1;P1;durP2;ratioP2;P2;SDS_P1;SDS_P2;PMS_P1;PMS_P2;Temp;Humidity;BMP_temperature;BMP_pressure;BME280_temperature;BME280_humidity;BME280_pressure;Samples;Min_cycle;Max_cycle;Signal;HPM_P1;HPM_P2
2023/01/21 00:14:57;;;;;;;35.53;17.17;;;;;;;-1.01;72.35;100399.59;30975661;28;97227;-73
2023/01/21 00:29:57;;;;;;;23.65;11.43;;;;;;;-1.00;72.00;100413.50;30993077;28;96719;-69
2023/01/21 00:44:58;;;;;;;35.20;17.17;;;;;;;-1.00;72.52;100421.34;30996407;28;97019;-71
2023/01/21 00:59:59;;;;;;;43.20;15.63;;;;;;;-0.99;72.66;100439.56;30995071;28;97112;-72
2023/01/21 01:14:59;;;;;;;31.98;14.73;;;;;;;-1.03;72.21;100438.03;30994796;28;97412;-75
2023/01/21 01:30:00;;;;;;;37.97;14.98;;;;;;;-1.10;72.66;100426.28;30992274;28;97131;-75
2023/01/21 01:45:04;;;;;;;42.55;15.45;;;;;;;-1.10;72.94;100442.78;30990757;28;97052;-65
2023/01/21 02:00:07;;;;;;;46.17;17.87;;;;;;;-1.09;73.24;100433.19;30989210;28;96731;-65
2023/01/21 02:15:08;;;;;;;42.60;16.17;;;;;;;-1.07;73.27;100420.84;30986917;28;96788;-67
2023/01/21 02:30:27;;;;;;;34.78;14.70;;;;;;;-1.09;73.70;100410.50;30987131;28;97380;-73
2023/01/21 02:45:30;;;;;;;27.55;13.32;;;;;;;-1.11;74.10;100420.19;30985417;28;97471;-74
2023/01/21 03:00:53;;;;;;;24.20;11.25;;;;;;;-1.12;74.14;100413.28;30983806;28;96748;-76
2023/01/21 03:31:20;;;;;;;18.88;10.15;;;;;;;-1.07;74.24;100400.75;30980697;28;98470;-76
2023/01/21 03:46:28;;;;;;;23.25;11.57;;;;;;;-1.08;75.09;100406.09;30978465;28;96787;-76
2023/01/21 04:01:29;;;;;;;20.45;10.45;;;;;;;-1.13;74.66;100401.13;30976116;28;96818;-72
2023/01/21 04:16:29;;;;;;;22.15;9.93;;;;;;;-1.09;74.90;100384.34;30975265;28;97232;-70
2023/01/21 04:31:30;;;;;;;23.15;10.07;;;;;;;-1.09;75.10;100380.91;30974218;28;97175;-74
2023/01/21 04:46:30;;;;;;;19.48;9.07;;;;;;;-1.12;75.36;100371.47;30972331;28;96710;-71
2023/01/21 05:01:30;;;;;;;19.80;10.18;;;;;;;-1.08;75.63;100367.72;30971293;28;96822;-71
2023/01/21 05:16:31;;;;;;;22.50;9.63;;;;;;;-1.02;75.58;100372.56;30987784;28;96789;-67
2023/01/21 05:31:31;;;;;;;15.55;8.25;;;;;;;-0.95;75.82;100354.75;30990020;28;96965;-65
2023/01/21 05:46:32;;;;;;;21.08;10.93;;;;;;;-0.90;75.84;100350.09;30988205;28;97486;-69
2023/01/21 06:01:32;;;;;;;23.92;9.77;;;;;;;-0.83;76.45;100328.78;30987033;28;96792;-68
2023/01/21 06:16:32;;;;;;;21.77;9.48;;;;;;;-0.77;76.35;100326.63;30986182;28;96630;-65
2023/01/21 06:31:33;;;;;;;14.55;8.30;;;;;;;-0.71;76.29;100318.41;30984721;28;97303;-65
2023/01/21 06:46:33;;;;;;;16.17;8.63;;;;;;;-0.64;76.87;100302.31;30983549;28;96873;-63
2023/01/21 07:01:34;;;;;;;15.63;8.73;;;;;;;-0.56;76.55;100297.44;30979420;28;96811;-70
2023/01/21 07:16:34;;;;;;;15.07;7.07;;;;;;;-0.46;76.66;100311.66;30979660;28;96659;-72
2023/01/21 07:31:35;;;;;;;15.75;8.18;;;;;;;-0.40;76.89;100310.44;30976043;28;96567;-67
2023/01/21 07:46:35;;;;;;;12.25;6.65;;;;;;;-0.25;76.77;100300.75;30975894;28;96697;-74
2023/01/21 08:01:35;;;;;;;16.98;6.90;;;;;;;-0.17;76.56;100295.88;30975116;28;97347;-75
2023/01/21 08:16:36;;;;;;;12.07;5.63;;;;;;;-0.02;76.62;100283.56;30974318;28;97538;-70
2023/01/21 08:31:36;;;;;;;8.95;5.55;;;;;;;0.09;76.59;100307.28;30973218;28;96683;-71
2023/01/21 08:46:37;;;;;;;13.65;6.72;;;;;;;0.17;76.42;100340.84;30982700;28;96807;-71
2023/01/21 09:01:39;;;;;;;10.52;6.05;;;;;;;0.49;76.62;100351.00;30992669;28;98054;-77
2023/01/21 09:16:40;;;;;;;15.25;7.05;;;;;;;0.65;76.93;100340.34;30992719;28;96715;-77
2023/01/21 09:31:40;;;;;;;14.57;7.63;;;;;;;0.89;76.39;100326.50;30990768;28;96768;-76
2023/01/21 09:47:02;;;;;;;11.55;7.07;;;;;;;1.17;76.23;100309.72;30990554;28;96644;-76
2023/01/21 10:02:13;;;;;;;12.27;6.55;;;;;;;1.62;75.91;100298.69;30984358;28;96742;-76
2023/01/21 10:17:32;;;;;;;11.50;5.40;;;;;;;2.05;75.69;100285.09;30984876;28;97438;-76
2023/01/21 10:32:35;;;;;;;8.18;5.50;;;;;;;2.07;74.73;100277.91;30982351;28;96705;-77
2023/01/21 10:47:50;;;;;;;7.90;4.32;;;;;;;1.94;74.80;100262.22;30982334;28;97683;-77
2023/01/21 11:02:56;;;;;;;6.63;4.53;;;;;;;1.88;74.56;100254.78;30981350;28;97702;-75
2023/01/21 11:17:57;;;;;;;7.28;3.83;;;;;;;1.95;74.72;100257.78;30979050;28;97556;-76
2023/01/21 11:33:23;;;;;;;5.45;3.75;;;;;;;1.99;74.16;100264.50;30978143;28;96874;-78
2023/01/21 11:48:23;;;;;;;7.28;3.72;;;;;;;1.87;74.07;100260.97;30977184;28;99013;-77
2023/01/21 12:03:29;;;;;;;5.68;3.50;;;;;;;1.73;74.31;100261.16;30974604;28;96728;-77
2023/01/21 12:18:57;;;;;;;6.05;3.83;;;;;;;1.47;74.68;100245.50;30986787;28;96743;-77
2023/01/21 12:34:09;;;;;;;6.72;3.67;;;;;;;1.41;74.68;100235.41;31013741;28;98148;-76
2023/01/21 12:49:17;;;;;;;10.02;4.00;;;;;;;1.40;74.97;100226.72;31012126;28;96809;-73
2023/01/21 13:04:59;;;;;;;5.70;3.97;;;;;;;1.40;74.39;100220.63;31011811;28;96780;-76
2023/01/21 13:20:11;;;;;;;7.30;4.28;;;;;;;1.32;74.45;100221.19;30999663;28;97043;-73
2023/01/21 13:35:36;;;;;;;6.68;4.53;;;;;;;1.31;74.76;100233.47;30996422;28;97116;-75
2023/01/21 13:51:03;;;;;;;8.57;5.20;;;;;;;1.22;74.73;100243.75;30988394;28;96694;-76
2023/01/21 14:06:12;;;;;;;8.65;5.20;;;;;;;1.14;74.70;100263.53;30987028;28;96662;-73
2023/01/21 14:21:24;;;;;;;9.57;5.60;;;;;;;1.09;75.06;100272.66;30984799;28;97528;-74
2023/01/21 14:37:08;;;;;;;5.88;4.63;;;;;;;1.04;75.14;100285.25;30983301;28;97222;-76
2023/01/21 14:52:13;;;;;;;8.27;4.90;;;;;;;0.95;75.25;100305.94;30977991;28;96505;-72
2023/01/21 15:07:18;;;;;;;7.63;4.57;;;;;;;0.82;75.07;100326.06;30980706;28;96733;-74
2023/01/21 15:22:38;;;;;;;9.50;5.67;;;;;;;0.79;75.69;100342.03;30979387;28;97224;-76
2023/01/21 15:37:43;;;;;;;9.38;5.05;;;;;;;0.74;75.79;100363.31;30977955;28;96743;-69
2023/01/21 15:53:01;;;;;;;7.60;5.33;;;;;;;0.73;76.14;100371.28;30973643;28;97469;-70
2023/01/21 16:08:10;;;;;;;9.60;6.03;;;;;;;0.75;76.06;100385.13;30975275;28;96641;-74
2023/01/21 16:23:14;;;;;;;10.55;6.55;;;;;;;0.76;76.36;100395.50;30973469;28;96932;-71
2023/01/21 16:38:20;;;;;;;12.13;6.43;;;;;;;0.73;76.36;100414.09;30973199;28;96664;-70
2023/01/21 16:53:22;;;;;;;11.90;7.18;;;;;;;0.73;76.36;100434.22;30969224;28;96711;-69
2023/01/21 17:08:23;;;;;;;12.93;7.20;;;;;;;0.71;76.68;100444.81;30981489;28;96791;-77
2023/01/21 17:23:28;;;;;;;13.70;8.20;;;;;;;0.74;76.76;100460.34;30988419;28;97338;-70
2023/01/21 17:38:29;;;;;;;10.87;9.30;;;;;;;0.73;76.77;100486.69;30972065;28;97663;-77
2023/01/21 17:53:32;;;;;;;13.88;8.60;;;;;;;0.67;76.74;100512.34;30988136;28;97555;-73
2023/01/21 18:08:32;;;;;;;14.85;9.20;;;;;;;0.59;76.49;100530.34;30986712;28;96771;-77
2023/01/21 18:23:33;;;;;;;14.30;8.82;;;;;;;0.52;77.33;100550.03;30983562;28;97141;-75
2023/01/21 18:38:34;;;;;;;17.67;10.23;;;;;;;0.65;77.43;100561.41;30983872;28;96798;-70
2023/01/21 18:53:35;;;;;;;18.77;10.80;;;;;;;0.74;77.74;100564.38;30982621;28;96763;-76
2023/01/21 19:08:35;;;;;;;21.52;11.20;;;;;;;0.76;77.47;100588.75;30983500;28;96788;-76
2023/01/21 19:23:36;;;;;;;24.95;11.75;;;;;;;0.75;77.72;100626.41;30977785;28;97304;-73
2023/01/21 19:38:36;;;;;;;24.15;12.18;;;;;;;0.66;77.80;100620.78;30978532;28;96505;-75
2023/01/21 19:53:37;;;;;;;27.58;13.23;;;;;;;0.67;78.13;100648.72;30976390;28;96849;-77
2023/01/21 20:08:37;;;;;;;30.83;13.50;;;;;;;0.63;78.01;100683.94;30974084;28;96796;-75
2023/01/21 20:23:38;;;;;;;29.67;15.07;;;;;;;0.56;78.34;100689.63;30974090;28;97082;-75
2023/01/21 20:38:39;;;;;;;34.22;15.13;;;;;;;0.49;78.59;100704.88;30976828;28;97110;-78
2023/01/21 20:53:40;;;;;;;29.00;14.27;;;;;;;0.47;78.67;100712.00;30993758;28;97300;-78
2023/01/21 21:08:40;;;;;;;32.72;15.82;;;;;;;0.53;78.69;100719.50;30991459;28;96747;-73
2023/01/21 21:23:45;;;;;;;34.25;15.77;;;;;;;0.52;78.81;100737.94;30991046;28;96658;-75
2023/01/21 21:38:46;;;;;;;40.17;17.38;;;;;;;0.61;79.25;100753.97;30988463;28;96696;-77
2023/01/21 21:53:47;;;;;;;42.08;18.95;;;;;;;0.55;79.08;100774.44;30985166;28;96722;-72
2023/01/21 22:08:48;;;;;;;41.90;18.65;;;;;;;0.56;79.40;100782.25;30986323;28;96632;-75
2023/01/21 22:23:48;;;;;;;40.83;17.70;;;;;;;0.59;79.70;100794.31;30986797;28;97666;-71
2023/01/21 22:38:50;;;;;;;41.28;18.92;;;;;;;0.71;79.75;100816.34;30985369;28;96805;-78
2023/01/21 22:53:51;;;;;;;42.22;17.42;;;;;;;0.64;79.49;100842.94;30983177;28;96923;-76
2023/01/21 23:08:51;;;;;;;43.10;19.20;;;;;;;0.70;79.72;100851.38;30981991;28;96653;-77
2023/01/21 23:23:52;;;;;;;41.63;19.33;;;;;;;0.79;80.01;100853.47;30981418;28;97362;-77
2023/01/21 23:38:52;;;;;;;51.35;17.85;;;;;;;0.83;79.69;100857.59;30982306;28;97040;-78
2023/01/21 23:53:54;;;;;;;40.78;16.45;;;;;;;0.80;79.68;100868.28;30980501;28;96880;-77
